sensor_id;sensor_type;location;lat;lon;timestamp;temperature;humidity
67974;DHT22;54756;51.140;6.952;2022-10-26T00:01:44;11.90;99.90
67974;DHT22;54756;51.140;6.952;2022-10-26T00:03:45;11.90;99.90
67974;DHT22;54756;51.140;6.952;2022-10-26T00:05:46;12.00;99.90
67974;DHT22;54756;51.140;6.952;2022-10-26T00:07:47;12.00;99.90
67974;DHT22;54756;51.140;6.952;2022-10-26T00:09:47;12.10;99.90
67974;DHT22;54756;51.140;6.952;2022-10-26T00:11:48;12.00;99.90
67974;DHT22;54756;51.140;6.952;2022-10-26T00:13:49;12.10;99.90
67974;DHT22;54756;51.140;6.952;2022-10-26T00:15:50;12.10;99.90
67974;DHT22;54756;51.140;6.952;2022-10-26T00:17:50;12.10;99.90
67974;DHT22;54756;51.140;6.952;2022-10-26T00:19:51;12.20;99.90
67974;DHT22;54756;51.140;6.952;2022-10-26T00:21:52;12.20;99.90
67974;DHT22;54756;51.140;6.952;2022-10-26T00:23:52;12.20;99.90
67974;DHT22;54756;51.140;6.952;2022-10-26T00:25:54;12.20;99.90
67974;DHT22;54756;51.140;6.952;2022-10-26T00:27:55;12.20;99.90
67974;DHT22;54756;51.140;6.952;2022-10-26T00:29:56;12.20;99.90
67974;DHT22;54756;51.140;6.952;2022-10-26T00:31:56;12.20;99.90
67974;DHT22;54756;51.140;6.952;2022-10-26T00:33:57;12.20;99.90
67974;DHT22;54756;51.140;6.952;2022-10-26T00:35:57;12.20;99.90
67974;DHT22;54756;51.140;6.952;2022-10-26T00:37:58;12.30;99.90
67974;DHT22;54756;51.140;6.952;2022-10-26T00:39:58;12.30;99.90
67974;DHT22;54756;51.140;6.952;2022-10-26T00:41:59;12.30;99.90
67974;DHT22;54756;51.140;6.952;2022-10-26T00:44:00;12.30;99.90
67974;DHT22;54756;51.140;6.952;2022-10-26T00:46:02;12.30;99.90
67974;DHT22;54756;51.140;6.952;2022-10-26T00:48:22;12.40;99.90
67974;DHT22;54756;51.140;6.952;2022-10-26T00:50:28;12.30;99.90
67974;DHT22;54756;51.140;6.952;2022-10-26T00:52:29;12.30;99.90
67974;DHT22;54756;51.140;6.952;2022-10-26T00:54:30;12.30;99.90
67974;DHT22;54756;51.140;6.952;2022-10-26T00:56:31;12.40;99.90
67974;DHT22;54756;51.140;6.952;2022-10-26T00:58:33;12.40;99.90
67974;DHT22;54756;51.140;6.952;2022-10-26T01:00:34;12.40;99.90
67974;DHT22;54756;51.140;6.952;2022-10-26T01:02:35;12.40;99.90
67974;DHT22;54756;51.140;6.952;2022-10-26T01:04:36;12.50;99.90
67974;DHT22;54756;51.140;6.952;2022-10-26T01:06:37;12.50;99.90
67974;DHT22;54756;51.140;6.952;2022-10-26T01:08:38;12.50;99.90
67974;DHT22;54756;51.140;6.952;2022-10-26T01:10:40;12.50;99.90
67974;DHT22;54756;51.140;6.952;2022-10-26T01:12:42;12.50;99.90
67974;DHT22;54756;51.140;6.952;2022-10-26T01:14:42;12.60;99.90
67974;DHT22;54756;51.140;6.952;2022-10-26T01:21:05;12.60;99.90
67974;DHT22;54756;51.140;6.952;2022-10-26T01:23:19;12.70;99.90
67974;DHT22;54756;51.140;6.952;2022-10-26T01:27:53;12.70;99.90
67974;DHT22;54756;51.140;6.952;2022-10-26T01:32:13;12.70;99.90
67974;DHT22;54756;51.140;6.952;2022-10-26T01:36:57;12.80;99.90
67974;DHT22;54756;51.140;6.952;2022-10-26T01:39:13;12.80;99.90
67974;DHT22;54756;51.140;6.952;2022-10-26T01:43:20;12.80;99.90
67974;DHT22;54756;51.140;6.952;2022-10-26T01:45:23;12.90;99.90
67974;DHT22;54756;51.140;6.952;2022-10-26T01:47:25;12.90;99.90
67974;DHT22;54756;51.140;6.952;2022-10-26T01:49:32;12.90;99.90
67974;DHT22;54756;51.140;6.952;2022-10-26T01:51:35;12.90;99.90
67974;DHT22;54756;51.140;6.952;2022-10-26T01:53:43;12.90;99.90
67974;DHT22;54756;51.140;6.952;2022-10-26T01:55:51;12.90;99.90
67974;DHT22;54756;51.140;6.952;2022-10-26T01:57:54;12.90;99.90
67974;DHT22;54756;51.140;6.952;2022-10-26T02:00:20;13.00;99.90
67974;DHT22;54756;51.140;6.952;2022-10-26T02:02:38;13.00;99.90
67974;DHT22;54756;51.140;6.952;2022-10-26T02:07:13;13.00;99.90
67974;DHT22;54756;51.140;6.952;2022-10-26T02:09:38;13.00;99.90
67974;DHT22;54756;51.140;6.952;2022-10-26T02:11:44;13.00;99.90
67974;DHT22;54756;51.140;6.952;2022-10-26T02:16:43;13.10;99.90
67974;DHT22;54756;51.140;6.952;2022-10-26T02:19:04;13.10;99.90
67974;DHT22;54756;51.140;6.952;2022-10-26T02:21:14;13.10;99.90
67974;DHT22;54756;51.140;6.952;2022-10-26T02:23:17;13.10;99.90
67974;DHT22;54756;51.140;6.952;2022-10-26T02:25:26;13.10;99.90
67974;DHT22;54756;51.140;6.952;2022-10-26T02:27:38;13.10;99.90
67974;DHT22;54756;51.140;6.952;2022-10-26T02:29:40;13.10;99.90
67974;DHT22;54756;51.140;6.952;2022-10-26T02:31:42;13.20;99.90
67974;DHT22;54756;51.140;6.952;2022-10-26T02:33:49;13.20;99.90
67974;DHT22;54756;51.140;6.952;2022-10-26T02:35:52;13.20;99.90
67974;DHT22;54756;51.140;6.952;2022-10-26T02:37:55;13.20;99.90
67974;DHT22;54756;51.140;6.952;2022-10-26T02:39:57;13.20;99.90
67974;DHT22;54756;51.140;6.952;2022-10-26T02:42:02;13.20;99.90
67974;DHT22;54756;51.140;6.952;2022-10-26T02:44:23;13.20;99.90
67974;DHT22;54756;51.140;6.952;2022-10-26T02:46:26;13.30;99.90
67974;DHT22;54756;51.140;6.952;2022-10-26T02:48:27;13.30;99.90
67974;DHT22;54756;51.140;6.952;2022-10-26T02:50:35;13.30;99.90
67974;DHT22;54756;51.140;6.952;2022-10-26T02:55:03;13.30;99.90
67974;DHT22;54756;51.140;6.952;2022-10-26T02:57:11;13.40;99.90
67974;DHT22;54756;51.140;6.952;2022-10-26T02:59:13;13.40;99.90
67974;DHT22;54756;51.140;6.952;2022-10-26T03:01:14;13.40;99.90
67974;DHT22;54756;51.140;6.952;2022-10-26T03:03:16;13.40;99.90
67974;DHT22;54756;51.140;6.952;2022-10-26T03:05:22;13.40;99.90
67974;DHT22;54756;51.140;6.952;2022-10-26T03:07:24;13.40;99.90
67974;DHT22;54756;51.140;6.952;2022-10-26T03:09:25;13.50;99.90
67974;DHT22;54756;51.140;6.952;2022-10-26T03:11:25;13.50;99.90
67974;DHT22;54756;51.140;6.952;2022-10-26T03:13:26;13.50;99.90
67974;DHT22;54756;51.140;6.952;2022-10-26T03:15:26;13.50;99.90
67974;DHT22;54756;51.140;6.952;2022-10-26T03:17:27;13.50;99.90
67974;DHT22;54756;51.140;6.952;2022-10-26T03:19:27;13.50;99.90
67974;DHT22;54756;51.140;6.952;2022-10-26T03:21:28;13.50;99.90
67974;DHT22;54756;51.140;6.952;2022-10-26T03:23:29;13.50;99.90
67974;DHT22;54756;51.140;6.952;2022-10-26T03:25:29;13.50;99.90
67974;DHT22;54756;51.140;6.952;2022-10-26T03:27:30;13.50;99.90
67974;DHT22;54756;51.140;6.952;2022-10-26T03:29:30;13.50;99.90
67974;DHT22;54756;51.140;6.952;2022-10-26T03:31:31;13.50;99.90
67974;DHT22;54756;51.140;6.952;2022-10-26T03:33:32;13.50;99.90
67974;DHT22;54756;51.140;6.952;2022-10-26T03:35:32;13.50;99.90
67974;DHT22;54756;51.140;6.952;2022-10-26T03:37:33;13.50;99.90
67974;DHT22;54756;51.140;6.952;2022-10-26T03:39:33;13.50;99.90
67974;DHT22;54756;51.140;6.952;2022-10-26T03:41:34;13.50;99.90
67974;DHT22;54756;51.140;6.952;2022-10-26T03:43:34;13.60;99.90
67974;DHT22;54756;51.140;6.952;2022-10-26T03:45:35;13.50;99.90
67974;DHT22;54756;51.140;6.952;2022-10-26T03:47:45;13.60;99.90
67974;DHT22;54756;51.140;6.952;2022-10-26T03:49:46;13.60;99.90
67974;DHT22;54756;51.140;6.952;2022-10-26T03:51:47;13.60;99.90
67974;DHT22;54756;51.140;6.952;2022-10-26T03:53:48;13.60;99.90
67974;DHT22;54756;51.140;6.952;2022-10-26T03:55:49;13.60;99.90
67974;DHT22;54756;51.140;6.952;2022-10-26T03:57:49;13.60;99.90
67974;DHT22;54756;51.140;6.952;2022-10-26T03:59:50;13.60;99.90
67974;DHT22;54756;51.140;6.952;2022-10-26T04:01:50;13.60;99.90
67974;DHT22;54756;51.140;6.952;2022-10-26T04:03:51;13.60;99.90
67974;DHT22;54756;51.140;6.952;2022-10-26T04:05:51;13.70;99.90
67974;DHT22;54756;51.140;6.952;2022-10-26T04:08:01;13.70;99.90
67974;DHT22;54756;51.140;6.952;2022-10-26T04:10:05;13.70;99.90
67974;DHT22;54756;51.140;6.952;2022-10-26T04:12:06;13.70;99.90
67974;DHT22;54756;51.140;6.952;2022-10-26T04:14:06;13.80;99.90
67974;DHT22;54756;51.140;6.952;2022-10-26T04:16:07;13.80;99.90
67974;DHT22;54756;51.140;6.952;2022-10-26T04:18:08;13.80;99.90
67974;DHT22;54756;51.140;6.952;2022-10-26T04:20:09;13.80;99.90
67974;DHT22;54756;51.140;6.952;2022-10-26T04:22:09;13.80;99.90
67974;DHT22;54756;51.140;6.952;2022-10-26T04:24:10;13.80;99.90
67974;DHT22;54756;51.140;6.952;2022-10-26T04:26:11;13.80;99.90
67974;DHT22;54756;51.140;6.952;2022-10-26T04:28:12;13.80;99.90
67974;DHT22;54756;51.140;6.952;2022-10-26T04:30:13;13.80;99.90
67974;DHT22;54756;51.140;6.952;2022-10-26T04:32:13;13.90;99.90
67974;DHT22;54756;51.140;6.952;2022-10-26T04:34:14;13.90;99.90
67974;DHT22;54756;51.140;6.952;2022-10-26T04:36:15;13.90;99.90
67974;DHT22;54756;51.140;6.952;2022-10-26T04:38:15;13.90;99.90
67974;DHT22;54756;51.140;6.952;2022-10-26T04:40:16;13.90;99.90
67974;DHT22;54756;51.140;6.952;2022-10-26T04:42:16;13.90;99.90
67974;DHT22;54756;51.140;6.952;2022-10-26T04:44:17;14.00;99.90
67974;DHT22;54756;51.140;6.952;2022-10-26T04:46:17;14.00;99.90
67974;DHT22;54756;51.140;6.952;2022-10-26T04:48:18;14.00;99.90
67974;DHT22;54756;51.140;6.952;2022-10-26T04:50:18;14.00;99.90
67974;DHT22;54756;51.140;6.952;2022-10-26T04:52:19;14.00;99.90
67974;DHT22;54756;51.140;6.952;2022-10-26T04:54:19;14.00;99.90
67974;DHT22;54756;51.140;6.952;2022-10-26T04:56:20;14.00;99.90
67974;DHT22;54756;51.140;6.952;2022-10-26T04:58:21;14.00;99.90
67974;DHT22;54756;51.140;6.952;2022-10-26T05:00:21;14.00;99.90
67974;DHT22;54756;51.140;6.952;2022-10-26T05:02:22;14.00;99.90
67974;DHT22;54756;51.140;6.952;2022-10-26T05:04:22;14.00;99.90
67974;DHT22;54756;51.140;6.952;2022-10-26T05:06:23;14.00;99.90
67974;DHT22;54756;51.140;6.952;2022-10-26T05:08:23;14.00;99.90
67974;DHT22;54756;51.140;6.952;2022-10-26T05:10:24;14.00;99.90
67974;DHT22;54756;51.140;6.952;2022-10-26T05:12:25;14.00;99.90
67974;DHT22;54756;51.140;6.952;2022-10-26T05:14:26;14.00;99.90
67974;DHT22;54756;51.140;6.952;2022-10-26T05:16:26;14.00;99.90
67974;DHT22;54756;51.140;6.952;2022-10-26T05:18:27;14.00;99.90
67974;DHT22;54756;51.140;6.952;2022-10-26T05:20:29;14.00;99.90
67974;DHT22;54756;51.140;6.952;2022-10-26T05:22:30;14.00;99.90
67974;DHT22;54756;51.140;6.952;2022-10-26T05:24:31;14.00;99.90
67974;DHT22;54756;51.140;6.952;2022-10-26T05:26:31;14.00;99.90
67974;DHT22;54756;51.140;6.952;2022-10-26T05:28:32;14.00;99.90
67974;DHT22;54756;51.140;6.952;2022-10-26T05:30:33;14.00;99.90
67974;DHT22;54756;51.140;6.952;2022-10-26T05:32:33;14.00;99.90
67974;DHT22;54756;51.140;6.952;2022-10-26T05:34:34;14.00;99.90
67974;DHT22;54756;51.140;6.952;2022-10-26T05:36:34;14.00;99.90
67974;DHT22;54756;51.140;6.952;2022-10-26T05:38:35;14.00;99.90
67974;DHT22;54756;51.140;6.952;2022-10-26T05:40:36;14.00;99.90
67974;DHT22;54756;51.140;6.952;2022-10-26T05:42:36;14.00;99.90
67974;DHT22;54756;51.140;6.952;2022-10-26T05:44:37;14.00;99.90
67974;DHT22;54756;51.140;6.952;2022-10-26T05:46:37;14.00;99.90
67974;DHT22;54756;51.140;6.952;2022-10-26T05:48:38;14.00;99.90
67974;DHT22;54756;51.140;6.952;2022-10-26T05:50:38;14.00;99.90
67974;DHT22;54756;51.140;6.952;2022-10-26T05:52:44;14.00;99.90
67974;DHT22;54756;51.140;6.952;2022-10-26T05:54:45;14.00;99.90
67974;DHT22;54756;51.140;6.952;2022-10-26T05:56:45;14.10;99.90
67974;DHT22;54756;51.140;6.952;2022-10-26T05:58:47;14.10;99.90
67974;DHT22;54756;51.140;6.952;2022-10-26T06:05:54;14.10;99.90
67974;DHT22;54756;51.140;6.952;2022-10-26T06:07:55;14.10;99.90
67974;DHT22;54756;51.140;6.952;2022-10-26T06:09:56;14.10;99.90
67974;DHT22;54756;51.140;6.952;2022-10-26T06:11:57;14.10;99.90
67974;DHT22;54756;51.140;6.952;2022-10-26T06:13:57;14.10;99.90
67974;DHT22;54756;51.140;6.952;2022-10-26T06:20:48;14.20;99.90
67974;DHT22;54756;51.140;6.952;2022-10-26T06:24:59;14.20;99.90
67974;DHT22;54756;51.140;6.952;2022-10-26T06:29:42;14.20;99.90
67974;DHT22;54756;51.140;6.952;2022-10-26T06:31:44;14.20;99.90
67974;DHT22;54756;51.140;6.952;2022-10-26T06:33:46;14.20;99.90
67974;DHT22;54756;51.140;6.952;2022-10-26T06:38:07;14.30;99.90
67974;DHT22;54756;51.140;6.952;2022-10-26T06:40:14;14.30;99.90
67974;DHT22;54756;51.140;6.952;2022-10-26T06:42:15;14.40;99.90
67974;DHT22;54756;51.140;6.952;2022-10-26T06:44:22;14.40;99.90
67974;DHT22;54756;51.140;6.952;2022-10-26T06:48:37;14.40;99.90
67974;DHT22;54756;51.140;6.952;2022-10-26T06:50:44;14.40;99.90
67974;DHT22;54756;51.140;6.952;2022-10-26T06:54:56;14.40;99.90
67974;DHT22;54756;51.140;6.952;2022-10-26T06:56:57;14.40;99.90
67974;DHT22;54756;51.140;6.952;2022-10-26T06:59:05;14.40;99.90
67974;DHT22;54756;51.140;6.952;2022-10-26T07:01:10;14.50;99.90
67974;DHT22;54756;51.140;6.952;2022-10-26T07:03:11;14.50;99.90
67974;DHT22;54756;51.140;6.952;2022-10-26T07:05:11;14.60;99.90
67974;DHT22;54756;51.140;6.952;2022-10-26T07:07:18;14.60;99.90
67974;DHT22;54756;51.140;6.952;2022-10-26T07:09:19;14.60;99.90
67974;DHT22;54756;51.140;6.952;2022-10-26T07:11:19;14.60;99.90
67974;DHT22;54756;51.140;6.952;2022-10-26T07:13:20;14.60;99.90
67974;DHT22;54756;51.140;6.952;2022-10-26T07:15:20;14.70;99.90
67974;DHT22;54756;51.140;6.952;2022-10-26T07:17:21;14.70;99.90
67974;DHT22;54756;51.140;6.952;2022-10-26T07:19:22;14.70;99.90
67974;DHT22;54756;51.140;6.952;2022-10-26T07:21:22;14.70;99.90
67974;DHT22;54756;51.140;6.952;2022-10-26T07:23:23;14.80;99.90
67974;DHT22;54756;51.140;6.952;2022-10-26T07:25:25;14.80;99.90
67974;DHT22;54756;51.140;6.952;2022-10-26T07:27:25;15.00;99.90
67974;DHT22;54756;51.140;6.952;2022-10-26T07:29:26;15.00;99.90
67974;DHT22;54756;51.140;6.952;2022-10-26T07:31:27;15.20;99.90
67974;DHT22;54756;51.140;6.952;2022-10-26T07:33:27;15.20;99.90
67974;DHT22;54756;51.140;6.952;2022-10-26T07:35:28;15.30;99.90
67974;DHT22;54756;51.140;6.952;2022-10-26T07:37:28;15.40;99.90
67974;DHT22;54756;51.140;6.952;2022-10-26T07:39:29;15.40;99.90
67974;DHT22;54756;51.140;6.952;2022-10-26T07:41:32;15.50;99.90
67974;DHT22;54756;51.140;6.952;2022-10-26T07:43:32;15.50;99.90
67974;DHT22;54756;51.140;6.952;2022-10-26T07:45:33;15.50;99.90
67974;DHT22;54756;51.140;6.952;2022-10-26T07:47:34;15.50;99.90
67974;DHT22;54756;51.140;6.952;2022-10-26T07:49:34;15.50;99.90
67974;DHT22;54756;51.140;6.952;2022-10-26T07:51:35;15.40;99.90
67974;DHT22;54756;51.140;6.952;2022-10-26T07:53:36;15.40;99.90
67974;DHT22;54756;51.140;6.952;2022-10-26T07:55:36;15.40;99.90
67974;DHT22;54756;51.140;6.952;2022-10-26T07:57:37;15.50;99.90
67974;DHT22;54756;51.140;6.952;2022-10-26T07:59:38;15.40;99.90
67974;DHT22;54756;51.140;6.952;2022-10-26T08:01:38;15.50;99.90
67974;DHT22;54756;51.140;6.952;2022-10-26T08:03:39;15.50;99.90
67974;DHT22;54756;51.140;6.952;2022-10-26T08:05:39;15.50;99.90
67974;DHT22;54756;51.140;6.952;2022-10-26T08:07:43;15.60;99.90
67974;DHT22;54756;51.140;6.952;2022-10-26T08:09:44;15.60;99.90
67974;DHT22;54756;51.140;6.952;2022-10-26T08:11:45;15.70;99.90
67974;DHT22;54756;51.140;6.952;2022-10-26T08:13:45;15.70;99.90
67974;DHT22;54756;51.140;6.952;2022-10-26T08:15:46;15.70;99.90
67974;DHT22;54756;51.140;6.952;2022-10-26T08:17:47;15.70;99.90
67974;DHT22;54756;51.140;6.952;2022-10-26T08:19:47;15.80;99.90
67974;DHT22;54756;51.140;6.952;2022-10-26T08:21:48;15.80;99.90
67974;DHT22;54756;51.140;6.952;2022-10-26T08:23:49;15.90;99.90
67974;DHT22;54756;51.140;6.952;2022-10-26T08:25:49;15.90;99.90
67974;DHT22;54756;51.140;6.952;2022-10-26T08:27:50;15.90;99.90
67974;DHT22;54756;51.140;6.952;2022-10-26T08:29:51;16.00;99.90
67974;DHT22;54756;51.140;6.952;2022-10-26T08:31:51;16.00;99.90
67974;DHT22;54756;51.140;6.952;2022-10-26T08:33:52;16.10;99.90
67974;DHT22;54756;51.140;6.952;2022-10-26T08:36:01;16.20;99.90
67974;DHT22;54756;51.140;6.952;2022-10-26T08:38:02;16.30;99.90
67974;DHT22;54756;51.140;6.952;2022-10-26T08:40:03;16.50;99.90
67974;DHT22;54756;51.140;6.952;2022-10-26T08:42:17;16.70;99.90
67974;DHT22;54756;51.140;6.952;2022-10-26T08:44:35;16.90;99.90
67974;DHT22;54756;51.140;6.952;2022-10-26T08:46:41;17.00;99.90
67974;DHT22;54756;51.140;6.952;2022-10-26T08:48:57;17.10;99.90
67974;DHT22;54756;51.140;6.952;2022-10-26T08:51:05;17.20;99.90
67974;DHT22;54756;51.140;6.952;2022-10-26T08:53:29;17.30;99.90
67974;DHT22;54756;51.140;6.952;2022-10-26T08:55:37;17.30;99.90
67974;DHT22;54756;51.140;6.952;2022-10-26T08:57:40;17.40;99.90
67974;DHT22;54756;51.140;6.952;2022-10-26T08:59:55;17.40;99.90
67974;DHT22;54756;51.140;6.952;2022-10-26T09:01:57;17.30;99.90
67974;DHT22;54756;51.140;6.952;2022-10-26T09:04:00;17.20;99.90
67974;DHT22;54756;51.140;6.952;2022-10-26T09:06:30;17.10;99.90
67974;DHT22;54756;51.140;6.952;2022-10-26T09:08:42;17.10;99.90
67974;DHT22;54756;51.140;6.952;2022-10-26T09:13:07;17.20;99.90
67974;DHT22;54756;51.140;6.952;2022-10-26T09:15:27;17.40;99.90
67974;DHT22;54756;51.140;6.952;2022-10-26T09:22:11;17.80;99.90
67974;DHT22;54756;51.140;6.952;2022-10-26T09:24:28;17.90;99.90
67974;DHT22;54756;51.140;6.952;2022-10-26T09:26:36;18.00;99.90
67974;DHT22;54756;51.140;6.952;2022-10-26T09:28:43;18.10;99.90
67974;DHT22;54756;51.140;6.952;2022-10-26T09:30:45;18.20;99.90
67974;DHT22;54756;51.140;6.952;2022-10-26T09:32:49;18.30;99.90
67974;DHT22;54756;51.140;6.952;2022-10-26T09:34:53;18.40;99.90
67974;DHT22;54756;51.140;6.952;2022-10-26T09:36:54;18.40;99.90
67974;DHT22;54756;51.140;6.952;2022-10-26T09:39:20;18.40;99.90
67974;DHT22;54756;51.140;6.952;2022-10-26T09:43:33;18.40;99.90
67974;DHT22;54756;51.140;6.952;2022-10-26T09:45:40;18.40;99.90
67974;DHT22;54756;51.140;6.952;2022-10-26T09:47:49;18.30;99.90
67974;DHT22;54756;51.140;6.952;2022-10-26T09:52:21;18.30;99.90
67974;DHT22;54756;51.140;6.952;2022-10-26T09:54:21;18.20;99.90
67974;DHT22;54756;51.140;6.952;2022-10-26T09:56:22;18.20;99.90
67974;DHT22;54756;51.140;6.952;2022-10-26T09:58:27;18.20;99.90
67974;DHT22;54756;51.140;6.952;2022-10-26T10:00:29;18.20;99.90
67974;DHT22;54756;51.140;6.952;2022-10-26T10:02:35;18.30;99.90
67974;DHT22;54756;51.140;6.952;2022-10-26T10:04:45;18.40;99.90
67974;DHT22;54756;51.140;6.952;2022-10-26T10:06:50;18.50;99.90
67974;DHT22;54756;51.140;6.952;2022-10-26T10:11:13;18.60;99.90
67974;DHT22;54756;51.140;6.952;2022-10-26T10:13:15;18.60;99.90
67974;DHT22;54756;51.140;6.952;2022-10-26T10:15:19;18.70;99.90
67974;DHT22;54756;51.140;6.952;2022-10-26T10:17:22;18.70;99.90
67974;DHT22;54756;51.140;6.952;2022-10-26T10:19:31;18.60;99.90
67974;DHT22;54756;51.140;6.952;2022-10-26T10:21:38;18.60;99.90
67974;DHT22;54756;51.140;6.952;2022-10-26T10:23:50;18.60;99.90
67974;DHT22;54756;51.140;6.952;2022-10-26T10:26:06;18.60;99.90
67974;DHT22;54756;51.140;6.952;2022-10-26T10:28:22;18.60;99.90
67974;DHT22;54756;51.140;6.952;2022-10-26T10:30:32;18.60;99.90
67974;DHT22;54756;51.140;6.952;2022-10-26T10:32:32;18.60;99.90
67974;DHT22;54756;51.140;6.952;2022-10-26T10:34:33;18.70;99.90
67974;DHT22;54756;51.140;6.952;2022-10-26T10:36:35;18.70;99.90
67974;DHT22;54756;51.140;6.952;2022-10-26T10:38:37;18.80;99.90
67974;DHT22;54756;51.140;6.952;2022-10-26T10:40:39;18.90;99.90
67974;DHT22;54756;51.140;6.952;2022-10-26T10:42:41;18.90;99.90
67974;DHT22;54756;51.140;6.952;2022-10-26T10:44:44;18.90;99.90
67974;DHT22;54756;51.140;6.952;2022-10-26T10:46:46;18.90;99.90
67974;DHT22;54756;51.140;6.952;2022-10-26T10:49:17;19.00;99.90
67974;DHT22;54756;51.140;6.952;2022-10-26T10:51:21;19.10;99.90
67974;DHT22;54756;51.140;6.952;2022-10-26T10:55:35;19.30;99.90
67974;DHT22;54756;51.140;6.952;2022-10-26T10:58:00;19.40;99.90
67974;DHT22;54756;51.140;6.952;2022-10-26T11:00:05;19.50;99.90
67974;DHT22;54756;51.140;6.952;2022-10-26T11:07:14;19.70;99.90
67974;DHT22;54756;51.140;6.952;2022-10-26T11:09:25;19.80;99.90
67974;DHT22;54756;51.140;6.952;2022-10-26T11:11:33;20.00;99.90
67974;DHT22;54756;51.140;6.952;2022-10-26T11:15:38;20.30;99.90
67974;DHT22;54756;51.140;6.952;2022-10-26T11:20:15;20.70;99.90
67974;DHT22;54756;51.140;6.952;2022-10-26T11:22:21;20.90;99.90
67974;DHT22;54756;51.140;6.952;2022-10-26T11:24:41;21.10;99.90
67974;DHT22;54756;51.140;6.952;2022-10-26T11:28:53;21.40;99.90
67974;DHT22;54756;51.140;6.952;2022-10-26T11:30:59;21.80;99.90
67974;DHT22;54756;51.140;6.952;2022-10-26T11:33:03;22.40;99.90
67974;DHT22;54756;51.140;6.952;2022-10-26T11:39:42;24.60;32.80
67974;DHT22;54756;51.140;6.952;2022-10-26T11:41:50;25.10;27.50
67974;DHT22;54756;51.140;6.952;2022-10-26T11:44:04;25.40;21.30
67974;DHT22;54756;51.140;6.952;2022-10-26T11:46:43;25.60;13.40
67974;DHT22;54756;51.140;6.952;2022-10-26T11:50:54;26.20;6.20
67974;DHT22;54756;51.140;6.952;2022-10-26T11:53:20;26.80;1.00
67974;DHT22;54756;51.140;6.952;2022-10-26T11:55:23;27.80;1.00
67974;DHT22;54756;51.140;6.952;2022-10-26T11:57:25;28.10;1.00
67974;DHT22;54756;51.140;6.952;2022-10-26T11:59:31;28.60;1.00
67974;DHT22;54756;51.140;6.952;2022-10-26T12:01:33;28.90;1.00
67974;DHT22;54756;51.140;6.952;2022-10-26T12:03:37;29.00;1.00
67974;DHT22;54756;51.140;6.952;2022-10-26T12:05:47;29.30;1.00
67974;DHT22;54756;51.140;6.952;2022-10-26T12:07:59;29.50;1.00
67974;DHT22;54756;51.140;6.952;2022-10-26T12:10:06;29.70;1.00
67974;DHT22;54756;51.140;6.952;2022-10-26T12:12:22;29.60;1.00
67974;DHT22;54756;51.140;6.952;2022-10-26T12:16:45;29.30;1.00
67974;DHT22;54756;51.140;6.952;2022-10-26T12:19:00;29.40;1.00
67974;DHT22;54756;51.140;6.952;2022-10-26T12:21:05;29.50;1.00
67974;DHT22;54756;51.140;6.952;2022-10-26T12:23:09;29.80;1.00
67974;DHT22;54756;51.140;6.952;2022-10-26T12:27:33;30.50;1.00
67974;DHT22;54756;51.140;6.952;2022-10-26T12:29:47;30.40;1.00
67974;DHT22;54756;51.140;6.952;2022-10-26T12:38:54;26.70;1.00
67974;DHT22;54756;51.140;6.952;2022-10-26T12:45:19;25.70;1.00
67974;DHT22;54756;51.140;6.952;2022-10-26T12:52:20;26.90;1.00
67974;DHT22;54756;51.140;6.952;2022-10-26T12:54:36;28.20;1.00
67974;DHT22;54756;51.140;6.952;2022-10-26T12:57:30;29.30;1.00
67974;DHT22;54756;51.140;6.952;2022-10-26T13:04:12;30.20;1.00
67974;DHT22;54756;51.140;6.952;2022-10-26T13:06:34;30.10;1.00
67974;DHT22;54756;51.140;6.952;2022-10-26T13:08:55;30.10;1.00
67974;DHT22;54756;51.140;6.952;2022-10-26T13:11:06;30.10;1.00
67974;DHT22;54756;51.140;6.952;2022-10-26T13:13:21;30.20;1.00
67974;DHT22;54756;51.140;6.952;2022-10-26T13:17:40;30.40;1.00
67974;DHT22;54756;51.140;6.952;2022-10-26T13:19:45;30.90;1.00
67974;DHT22;54756;51.140;6.952;2022-10-26T13:21:47;31.30;1.00
67974;DHT22;54756;51.140;6.952;2022-10-26T13:23:58;31.70;1.00
67974;DHT22;54756;51.140;6.952;2022-10-26T13:29:00;31.30;1.00
67974;DHT22;54756;51.140;6.952;2022-10-26T13:31:01;31.70;1.00
67974;DHT22;54756;51.140;6.952;2022-10-26T13:33:02;31.80;1.00
67974;DHT22;54756;51.140;6.952;2022-10-26T13:35:11;31.50;1.00
67974;DHT22;54756;51.140;6.952;2022-10-26T13:37:22;31.70;1.00
67974;DHT22;54756;51.140;6.952;2022-10-26T13:39:28;32.10;1.00
67974;DHT22;54756;51.140;6.952;2022-10-26T13:41:34;32.70;1.00
67974;DHT22;54756;51.140;6.952;2022-10-26T13:43:36;33.20;1.00
67974;DHT22;54756;51.140;6.952;2022-10-26T13:45:49;33.80;1.00
67974;DHT22;54756;51.140;6.952;2022-10-26T13:48:02;33.70;1.00
67974;DHT22;54756;51.140;6.952;2022-10-26T13:50:15;33.60;1.00
67974;DHT22;54756;51.140;6.952;2022-10-26T13:52:19;33.20;1.00
67974;DHT22;54756;51.140;6.952;2022-10-26T13:54:38;32.90;1.00
67974;DHT22;54756;51.140;6.952;2022-10-26T13:56:59;32.90;1.00
67974;DHT22;54756;51.140;6.952;2022-10-26T13:59:03;33.30;1.00
67974;DHT22;54756;51.140;6.952;2022-10-26T14:01:14;33.20;1.00
67974;DHT22;54756;51.140;6.952;2022-10-26T14:03:18;33.00;1.00
67974;DHT22;54756;51.140;6.952;2022-10-26T14:05:21;33.00;1.00
67974;DHT22;54756;51.140;6.952;2022-10-26T14:07:24;32.90;1.00
67974;DHT22;54756;51.140;6.952;2022-10-26T14:09:28;32.60;1.00
67974;DHT22;54756;51.140;6.952;2022-10-26T14:11:35;32.80;1.00
67974;DHT22;54756;51.140;6.952;2022-10-26T14:13:42;33.00;1.00
67974;DHT22;54756;51.140;6.952;2022-10-26T14:15:44;33.40;1.00
67974;DHT22;54756;51.140;6.952;2022-10-26T14:17:49;34.20;99.90
67974;DHT22;54756;51.140;6.952;2022-10-26T14:19:50;34.50;99.90
67974;DHT22;54756;51.140;6.952;2022-10-26T14:21:51;34.70;1.00
67974;DHT22;54756;51.140;6.952;2022-10-26T14:23:57;34.90;1.00
67974;DHT22;54756;51.140;6.952;2022-10-26T14:25:58;34.10;1.00
67974;DHT22;54756;51.140;6.952;2022-10-26T14:27:59;33.20;99.90
67974;DHT22;54756;51.140;6.952;2022-10-26T14:30:01;32.30;1.00
67974;DHT22;54756;51.140;6.952;2022-10-26T14:32:19;31.20;1.00
67974;DHT22;54756;51.140;6.952;2022-10-26T14:34:20;29.90;1.00
67974;DHT22;54756;51.140;6.952;2022-10-26T14:36:28;28.80;1.00
67974;DHT22;54756;51.140;6.952;2022-10-26T14:38:35;27.90;1.00
67974;DHT22;54756;51.140;6.952;2022-10-26T14:40:37;27.00;1.00
67974;DHT22;54756;51.140;6.952;2022-10-26T14:42:39;26.30;1.00
67974;DHT22;54756;51.140;6.952;2022-10-26T14:44:41;25.80;1.00
67974;DHT22;54756;51.140;6.952;2022-10-26T14:46:42;25.50;1.00
67974;DHT22;54756;51.140;6.952;2022-10-26T14:48:54;25.20;1.00
67974;DHT22;54756;51.140;6.952;2022-10-26T14:53:01;24.70;1.00
67974;DHT22;54756;51.140;6.952;2022-10-26T14:55:13;24.50;1.00
67974;DHT22;54756;51.140;6.952;2022-10-26T14:57:34;24.20;1.00
67974;DHT22;54756;51.140;6.952;2022-10-26T14:59:35;24.00;1.00